LKJI weather

Jihlava Airport
Jihlava, Vysočina Region, Czechia

Public forecast

Using degrees Celsius for public forecast. Weather courtesy of forecast.io.

METAR (pilot weather report)

Closest report is Náměšť Air Base, 24.5 nm (45.3 km) SE. Retrieved 2019/08/18 18:00 UTC (4 minutes ago):

LKNA 181800Z 14004KT 120V180 CAVOK 28/13 Q1012 NOSIG RMK BLU BLU

TAF (pilot weather forecast)

Closest forecast is Náměšť Air Base, 24.5 nm (45.3 km) SE. Retrieved 2019/08/18 18:05 UTC (0 seconds ago):

TAF LKNA 181700Z 1818/1918 13005KT CAVOK BECMG 1902/1904 31006KT PROB30 TEMPO 1903/1907 RA BKN040 PROB30 TEMPO 1911/1918 29015KT 7000 SHRA SCT035TCU